Time;durP1;ratioP1;P1;durP2;ratioP2;P2;SDS_P1;SDS_P2;PMS_P1;PMS_P2;Temp;Humidity;BMP_temperature;BMP_pressure;BME280_temperature;BME280_humidity;BME280_pressure;Samples;Min_cycle;Max_cycle;Signal;HPM_P1;HPM_P2
2022/03/29 00:01:38;;;;;;;17.55;8.73;;;6.90;99.90;;;;;;5085638;28;20028;-76
2022/03/29 00:04:05;;;;;;;18.33;8.05;;;6.90;99.90;;;;;;5083774;28;20029;-76
2022/03/29 00:06:32;;;;;;;24.85;10.02;;;6.90;99.90;;;;;;5085802;28;20099;-74
2022/03/29 00:08:58;;;;;;;20.83;9.63;;;6.90;99.90;;;;;;5083127;28;20044;-74
2022/03/29 00:11:24;;;;;;;22.75;8.15;;;6.90;99.90;;;;;;5083757;28;20105;-77
2022/03/29 00:14:02;;;;;;;;;;;;;;;;;;;;;
2022/03/29 00:16:28;;;;;;;23.30;8.70;;;6.90;99.90;;;;;;5085071;28;20544;-80
2022/03/29 00:18:54;;;;;;;21.90;9.23;;;6.90;99.90;;;;;;5084325;28;20064;-75
2022/03/29 00:21:31;;;;;;;25.55;9.82;;;6.90;99.90;;;;;;5083553;28;20040;-76
2022/03/29 00:24:01;;;;;;;16.17;8.15;;;6.90;99.90;;;;;;5084862;28;20020;-77
2022/03/29 00:26:26;;;;;;;28.42;10.48;;;6.90;99.90;;;;;;5085495;28;20029;-77
2022/03/29 00:28:52;;;;;;;31.17;11.27;;;6.90;99.90;;;;;;5084754;28;20032;-75
2022/03/29 00:31:20;;;;;;;27.02;10.77;;;6.90;99.90;;;;;;5083742;28;20092;-77
2022/03/29 00:33:49;;;;;;;19.90;9.73;;;6.90;99.90;;;;;;5083610;28;20032;-77
2022/03/29 00:36:16;;;;;;;27.08;10.32;;;6.90;99.90;;;;;;5083744;28;20093;-75
2022/03/29 00:38:55;;;;;;;22.00;11.10;;;6.90;99.90;;;;;;5084851;28;20392;-77
2022/03/29 00:41:32;;;;;;;23.08;10.30;;;6.90;99.90;;;;;;5083785;28;20027;-78
2022/03/29 00:43:58;;;;;;;29.02;9.90;;;6.90;99.90;;;;;;5083593;28;20036;-75
2022/03/29 00:46:24;;;;;;;32.53;10.93;;;6.90;99.90;;;;;;5083107;28;20025;-77
2022/03/29 00:48:50;;;;;;;27.08;10.13;;;6.90;99.90;;;;;;5065972;28;20428;-77
2022/03/29 00:51:19;;;;;;;23.98;10.35;;;6.80;99.90;;;;;;5071736;28;20025;-78
2022/03/29 00:53:46;;;;;;;31.25;11.25;;;6.80;99.90;;;;;;5064646;28;20110;-77
2022/03/29 00:56:12;;;;;;;24.38;10.50;;;6.80;99.90;;;;;;5063544;28;20049;-76
2022/03/29 00:58:37;;;;;;;21.67;9.15;;;6.80;99.90;;;;;;5064482;28;20469;-74
2022/03/29 01:01:10;;;;;;;24.85;9.80;;;6.80;99.90;;;;;;5062968;28;20045;-76
2022/03/29 01:03:36;;;;;;;24.48;9.23;;;6.80;99.90;;;;;;5064854;28;20385;-78
2022/03/29 01:06:03;;;;;;;26.27;10.98;;;6.80;99.90;;;;;;5063796;28;20017;-78
2022/03/29 01:08:28;;;;;;;31.00;9.82;;;6.80;99.90;;;;;;5062894;28;20028;-75
2022/03/29 01:10:56;;;;;;;21.52;9.40;;;6.70;99.90;;;;;;5063453;28;20036;-77
2022/03/29 01:13:22;;;;;;;21.40;9.98;;;6.70;99.90;;;;;;5063570;28;20021;-77
2022/03/29 01:15:50;;;;;;;21.77;8.23;;;6.70;99.90;;;;;;5063246;28;20385;-77
2022/03/29 01:18:20;;;;;;;23.40;9.32;;;6.70;99.90;;;;;;5062791;28;20041;-78
2022/03/29 01:20:58;;;;;;;18.55;7.93;;;6.70;99.90;;;;;;5062724;28;20025;-78
2022/03/29 01:23:24;;;;;;;15.00;7.07;;;6.70;99.90;;;;;;5064567;28;20025;-78
2022/03/29 01:25:51;;;;;;;17.67;7.78;;;6.70;99.90;;;;;;5064650;28;20061;-77
2022/03/29 01:28:23;;;;;;;31.30;9.07;;;6.60;99.90;;;;;;5064262;28;20052;-77
2022/03/29 01:30:52;;;;;;;37.47;9.23;;;6.70;99.90;;;;;;5062996;28;20033;-75
2022/03/29 01:33:18;;;;;;;17.80;8.02;;;6.60;99.90;;;;;;5062193;28;20052;-78
2022/03/29 01:35:55;;;;;;;22.05;8.80;;;6.60;99.90;;;;;;5064081;28;20036;-76
2022/03/29 01:38:24;;;;;;;21.90;9.60;;;6.60;99.90;;;;;;5064293;28;20481;-76
2022/03/29 01:40:50;;;;;;;18.85;8.38;;;6.60;99.90;;;;;;5064241;28;20025;-74
2022/03/29 01:43:16;;;;;;;38.50;9.43;;;6.60;99.90;;;;;;5064211;28;20396;-76
2022/03/29 01:45:41;;;;;;;17.85;7.80;;;6.60;99.90;;;;;;5064164;28;20036;-76
2022/03/29 01:48:08;;;;;;;18.00;8.40;;;6.60;99.90;;;;;;5063953;28;20032;-76
2022/03/29 01:50:35;;;;;;;19.83;8.88;;;6.60;99.90;;;;;;5062899;28;20116;-77
2022/03/29 01:53:01;;;;;;;24.92;9.05;;;6.60;99.90;;;;;;5061932;28;20021;-73
2022/03/29 01:55:27;;;;;;;28.83;8.80;;;6.50;99.90;;;;;;5063751;28;20025;-75
2022/03/29 01:57:59;;;;;;;24.35;8.77;;;6.60;99.90;;;;;;5062596;28;20049;-77
2022/03/29 02:00:33;;;;;;;22.42;8.63;;;6.50;99.90;;;;;;5062666;28;20044;-77
2022/03/29 02:03:01;;;;;;;25.00;8.70;;;6.50;99.90;;;;;;5067023;28;20033;-76
2022/03/29 02:05:27;;;;;;;31.08;10.10;;;6.40;99.90;;;;;;5067644;28;20120;-76
2022/03/29 02:07:53;;;;;;;22.33;8.48;;;6.40;99.90;;;;;;5067606;28;20036;-77
2022/03/29 02:10:22;;;;;;;19.15;8.25;;;6.40;99.90;;;;;;5066492;28;20025;-78
2022/03/29 02:12:51;;;;;;;18.50;7.35;;;6.40;99.90;;;;;;5067608;28;20025;-79
2022/03/29 02:15:18;;;;;;;17.00;7.63;;;6.40;99.90;;;;;;5065890;28;20069;-75
2022/03/29 02:17:45;;;;;;;23.50;8.52;;;6.40;99.90;;;;;;5067556;28;20120;-76
2022/03/29 02:20:13;;;;;;;21.17;8.90;;;6.50;99.90;;;;;;5065984;28;20024;-77
2022/03/29 02:22:43;;;;;;;17.70;8.48;;;6.50;99.90;;;;;;5075088;28;20029;-82
2022/03/29 02:25:13;;;;;;;20.75;7.78;;;6.50;99.90;;;;;;5077711;28;20049;-79
2022/03/29 02:27:41;;;;;;;19.67;8.57;;;6.50;99.90;;;;;;5065919;28;20760;-75
2022/03/29 02:30:14;;;;;;;29.10;9.00;;;6.50;99.90;;;;;;5066421;28;20021;-79
2022/03/29 02:32:41;;;;;;;27.63;8.98;;;6.50;99.90;;;;;;5071720;28;20032;-76
2022/03/29 02:35:08;;;;;;;23.55;8.05;;;6.40;99.90;;;;;;5086702;28;20025;-77
2022/03/29 02:37:35;;;;;;;21.05;8.35;;;6.50;99.90;;;;;;5086918;28;20028;-77
2022/03/29 02:40:02;;;;;;;24.30;10.35;;;6.50;99.90;;;;;;5085803;28;20025;-75
2022/03/29 02:42:32;;;;;;;22.92;8.45;;;6.50;99.90;;;;;;5086953;28;20069;-76
2022/03/29 02:44:58;;;;;;;26.52;8.02;;;6.50;99.90;;;;;;5084906;28;20032;-78
2022/03/29 02:47:24;;;;;;;20.60;7.65;;;6.50;99.90;;;;;;5084838;28;20028;-77
2022/03/29 02:49:50;;;;;;;28.83;9.48;;;6.50;99.90;;;;;;5085108;28;20032;-77
2022/03/29 02:52:22;;;;;;;29.65;9.95;;;6.40;99.90;;;;;;5085657;28;20391;-77
2022/03/29 02:54:47;;;;;;;17.90;7.43;;;6.40;99.90;;;;;;5085225;28;20021;-76
2022/03/29 02:57:13;;;;;;;24.20;9.10;;;6.40;99.90;;;;;;5086149;28;20060;-76
2022/03/29 02:59:39;;;;;;;20.00;8.55;;;6.40;99.90;;;;;;5086841;28;20058;-76
2022/03/29 03:02:05;;;;;;;29.52;9.13;;;6.40;99.90;;;;;;5085542;28;20149;-76
2022/03/29 03:04:31;;;;;;;21.55;8.75;;;6.40;99.90;;;;;;5084898;28;20051;-77
2022/03/29 03:07:07;;;;;;;24.35;8.88;;;6.40;99.90;;;;;;5086660;28;20103;-79
2022/03/29 03:09:34;;;;;;;28.38;10.48;;;6.40;99.90;;;;;;5086120;28;20020;-76
2022/03/29 03:12:00;;;;;;;22.20;8.73;;;6.40;99.90;;;;;;5085038;28;20024;-76
2022/03/29 03:14:25;;;;;;;23.27;9.75;;;6.40;99.90;;;;;;5085099;28;20024;-75
2022/03/29 03:16:51;;;;;;;21.65;7.75;;;6.40;99.90;;;;;;5084514;28;20021;-76
2022/03/29 03:19:18;;;;;;;23.83;8.15;;;6.40;99.90;;;;;;5083772;28;20047;-77
2022/03/29 03:21:45;;;;;;;25.80;9.50;;;6.40;99.90;;;;;;5072171;28;20028;-78
2022/03/29 03:24:13;;;;;;;19.83;8.15;;;6.40;99.90;;;;;;5064838;28;20044;-76
2022/03/29 03:26:39;;;;;;;28.55;8.63;;;6.40;99.90;;;;;;5064440;28;20493;-77
2022/03/29 03:29:04;;;;;;;22.52;9.20;;;6.40;99.90;;;;;;5065977;28;20055;-76
2022/03/29 03:31:32;;;;;;;20.90;8.90;;;6.50;99.90;;;;;;5072997;28;20115;-76
2022/03/29 03:33:59;;;;;;;22.30;8.77;;;6.50;99.90;;;;;;5085613;28;20032;-76
2022/03/29 03:36:27;;;;;;;20.20;9.20;;;6.50;99.90;;;;;;5084702;28;20028;-78
2022/03/29 03:38:53;;;;;;;20.02;8.18;;;6.50;99.90;;;;;;5084706;28;20074;-75
2022/03/29 03:41:19;;;;;;;28.38;8.27;;;6.50;99.90;;;;;;5084212;28;20049;-78
2022/03/29 03:43:45;;;;;;;23.33;9.35;;;6.50;99.90;;;;;;5084555;28;20029;-77
2022/03/29 03:46:10;;;;;;;13.45;7.28;;;6.50;99.90;;;;;;5083850;28;20058;-76
2022/03/29 03:48:36;;;;;;;25.95;9.25;;;6.50;99.90;;;;;;5086247;28;20040;-77
2022/03/29 03:51:05;;;;;;;20.83;8.45;;;6.50;99.90;;;;;;5081639;28;20029;-80
2022/03/29 03:53:33;;;;;;;17.48;8.60;;;6.50;99.90;;;;;;5065417;28;20060;-78
2022/03/29 03:56:00;;;;;;;22.38;8.77;;;6.50;99.90;;;;;;5066588;28;20036;-76
2022/03/29 03:58:26;;;;;;;27.83;9.45;;;6.40;99.90;;;;;;5064298;28;20501;-76
2022/03/29 04:00:53;;;;;;;23.98;9.27;;;6.50;99.90;;;;;;5066139;28;20056;-79
2022/03/29 04:03:23;;;;;;;25.35;9.15;;;6.40;99.90;;;;;;5064875;28;20056;-77
2022/03/29 04:05:48;;;;;;;20.23;9.52;;;6.40;99.90;;;;;;5064156;28;20029;-77
2022/03/29 04:08:15;;;;;;;27.77;9.88;;;6.40;99.90;;;;;;5065672;28;20075;-75
2022/03/29 04:10:45;;;;;;;21.33;9.10;;;6.40;99.90;;;;;;5066136;28;20454;-77
2022/03/29 04:13:16;;;;;;;27.33;9.70;;;6.40;99.90;;;;;;5064816;28;20112;-75
2022/03/29 04:15:43;;;;;;;31.48;9.40;;;6.40;99.90;;;;;;5064179;28;20043;-76
2022/03/29 04:18:09;;;;;;;25.67;8.75;;;6.40;99.90;;;;;;5065308;28;20037;-75
2022/03/29 04:20:35;;;;;;;22.20;8.57;;;6.50;99.90;;;;;;5067261;28;20032;-76
2022/03/29 04:23:01;;;;;;;25.40;9.50;;;6.40;99.90;;;;;;5073275;28;20048;-77
2022/03/29 04:25:35;;;;;;;21.77;8.80;;;6.40;99.90;;;;;;5066577;28;20021;-77
2022/03/29 04:28:01;;;;;;;31.88;10.52;;;6.40;99.90;;;;;;5065243;28;20029;-78
2022/03/29 04:30:29;;;;;;;23.52;10.65;;;6.40;99.90;;;;;;5064369;28;20090;-78
2022/03/29 04:32:58;;;;;;;29.15;9.35;;;6.40;99.90;;;;;;5063201;28;20025;-78
2022/03/29 04:35:25;;;;;;;22.27;9.07;;;6.40;99.90;;;;;;5073407;28;20021;-76
2022/03/29 04:37:51;;;;;;;29.42;8.90;;;6.40;99.90;;;;;;5085745;28;20094;-76
2022/03/29 04:40:16;;;;;;;23.80;10.27;;;6.40;99.90;;;;;;5082246;28;20024;-78
2022/03/29 04:42:54;;;;;;;29.40;10.32;;;6.40;99.90;;;;;;5084802;28;20439;-79
2022/03/29 04:45:23;;;;;;;23.10;9.40;;;6.40;99.90;;;;;;5083866;28;20036;-77
2022/03/29 04:47:50;;;;;;;27.67;9.05;;;6.40;99.90;;;;;;5081776;28;20024;-76
2022/03/29 04:50:17;;;;;;;24.55;10.05;;;6.40;99.90;;;;;;5074526;28;20112;-75
2022/03/29 04:52:47;;;;;;;22.58;9.93;;;6.40;99.90;;;;;;5063115;28;20102;-76
2022/03/29 04:55:23;;;;;;;23.38;9.32;;;6.50;99.90;;;;;;5065019;28;20029;-76
2022/03/29 04:57:51;;;;;;;43.90;11.18;;;6.50;99.90;;;;;;5063825;28;20061;-78
2022/03/29 05:00:20;;;;;;;25.17;9.85;;;6.40;99.90;;;;;;5064066;28;20025;-76
2022/03/29 05:02:49;;;;;;;27.63;10.98;;;6.50;99.90;;;;;;5063625;28;20092;-77
2022/03/29 05:05:16;;;;;;;20.30;9.02;;;6.50;99.90;;;;;;5063574;28;20029;-80
2022/03/29 05:07:48;;;;;;;25.58;9.70;;;6.50;99.90;;;;;;5064938;28;20022;-78
2022/03/29 05:10:14;;;;;;;23.25;9.68;;;6.50;99.90;;;;;;5063891;28;20029;-75
2022/03/29 05:12:41;;;;;;;24.13;9.23;;;6.50;99.90;;;;;;5078357;28;20059;-76
2022/03/29 05:15:11;;;;;;;31.65;10.90;;;6.40;99.90;;;;;;5082958;28;20035;-77
2022/03/29 05:17:38;;;;;;;23.80;9.88;;;6.40;99.90;;;;;;5084239;28;20040;-77
2022/03/29 05:20:05;;;;;;;29.92;9.77;;;6.40;99.90;;;;;;5067402;28;20029;-76
2022/03/29 05:22:31;;;;;;;18.95;8.52;;;6.40;99.90;;;;;;5063941;28;20029;-75
2022/03/29 05:25:03;;;;;;;26.90;8.57;;;6.40;99.90;;;;;;5063613;28;20021;-77
2022/03/29 05:27:30;;;;;;;31.58;10.65;;;6.40;99.90;;;;;;5064707;28;20032;-74
2022/03/29 05:29:58;;;;;;;27.77;9.40;;;6.40;99.90;;;;;;5076279;28;20419;-77
2022/03/29 05:32:33;;;;;;;17.85;8.15;;;6.40;99.90;;;;;;5073502;28;20040;-75
2022/03/29 05:34:59;;;;;;;25.10;9.10;;;6.50;99.90;;;;;;5070095;28;20025;-75
2022/03/29 05:37:25;;;;;;;25.13;9.80;;;6.50;99.90;;;;;;5072794;28;20021;-76
2022/03/29 05:39:52;;;;;;;22.70;10.20;;;6.50;99.90;;;;;;5079978;28;20080;-76
2022/03/29 05:42:21;;;;;;;26.05;10.43;;;6.50;99.90;;;;;;5066257;28;20172;-74
2022/03/29 05:44:48;;;;;;;31.60;10.52;;;6.50;99.90;;;;;;5066501;28;20044;-73
2022/03/29 05:50:08;;;;;;;31.77;9.27;;;6.40;99.90;;;;;;5069775;28;20044;-75
2022/03/29 05:52:33;;;;;;;30.55;8.98;;;6.50;99.90;;;;;;5075766;28;20086;-74
2022/03/29 05:54:59;;;;;;;25.77;9.75;;;6.60;99.90;;;;;;5086951;28;20024;-74
2022/03/29 05:57:25;;;;;;;20.05;9.35;;;6.50;99.90;;;;;;5072975;28;20068;-73
2022/03/29 05:59:57;;;;;;;24.88;8.23;;;6.60;99.90;;;;;;5073229;28;20064;-76
2022/03/29 06:02:24;;;;;;;20.77;8.02;;;6.60;99.90;;;;;;5071069;28;20029;-76
2022/03/29 06:04:50;;;;;;;29.60;9.82;;;6.60;99.90;;;;;;5081708;28;20017;-74
2022/03/29 06:07:17;;;;;;;16.17;7.90;;;6.60;99.90;;;;;;5068332;28;20074;-79
2022/03/29 06:09:44;;;;;;;28.15;8.45;;;6.60;99.90;;;;;;5083990;28;20024;-74
2022/03/29 06:12:10;;;;;;;24.27;7.07;;;6.60;99.90;;;;;;5073559;28;20102;-76
2022/03/29 06:14:35;;;;;;;19.50;8.00;;;6.60;99.90;;;;;;5082613;28;20017;-76
2022/03/29 06:17:06;;;;;;;21.42;8.25;;;6.60;99.90;;;;;;5065857;28;20031;-75
2022/03/29 06:19:32;;;;;;;20.60;7.03;;;6.60;99.90;;;;;;5075119;28;20034;-75
2022/03/29 06:21:57;;;;;;;16.73;6.68;;;6.60;99.90;;;;;;5086599;28;20052;-74
2022/03/29 06:24:23;;;;;;;29.00;7.95;;;6.70;99.90;;;;;;5085253;28;20388;-75
2022/03/29 06:26:52;;;;;;;27.55;7.55;;;6.70;99.90;;;;;;5070095;28;20043;-75
2022/03/29 06:29:18;;;;;;;22.17;7.45;;;6.80;99.90;;;;;;5076391;28;20036;-73
2022/03/29 06:31:43;;;;;;;23.85;8.73;;;6.80;99.90;;;;;;5086689;28;20021;-75
2022/03/29 06:34:10;;;;;;;23.27;7.65;;;6.90;99.90;;;;;;5086626;28;20040;-74
2022/03/29 06:36:36;;;;;;;25.60;8.98;;;6.90;99.90;;;;;;5086245;28;20028;-75
2022/03/29 06:39:03;;;;;;;20.08;8.85;;;6.90;99.90;;;;;;5076666;28;20047;-75
2022/03/29 06:41:30;;;;;;;25.80;7.95;;;7.00;99.90;;;;;;5083123;28;20033;-76
2022/03/29 06:43:56;;;;;;;12.80;6.72;;;7.00;99.90;;;;;;5080573;28;20032;-74
2022/03/29 06:46:22;;;;;;;17.05;7.13;;;7.00;99.90;;;;;;5073546;28;20056;-75
2022/03/29 06:48:47;;;;;;;23.80;7.95;;;7.00;99.90;;;;;;5075578;28;20385;-74
2022/03/29 06:51:27;;;;;;;13.93;7.22;;;7.10;99.90;;;;;;5066209;28;20056;-75
2022/03/29 06:53:59;;;;;;;25.02;5.25;;;7.10;99.90;;;;;;5070308;28;20025;-74
2022/03/29 06:56:26;;;;;;;11.90;3.88;;;7.10;99.90;;;;;;5074303;28;20047;-76
2022/03/29 06:58:52;;;;;;;13.05;4.47;;;7.20;99.90;;;;;;5069352;28;20083;-76
2022/03/29 07:01:19;;;;;;;20.60;3.78;;;7.20;99.90;;;;;;5074801;28;20033;-76
2022/03/29 07:03:59;;;;;;;11.23;2.50;;;7.20;99.90;;;;;;5086012;28;20029;-74
2022/03/29 07:06:31;;;;;;;23.90;4.07;;;7.20;99.90;;;;;;5079286;28;20036;-73
2022/03/29 07:11:46;;;;;;;10.32;3.08;;;7.20;99.90;;;;;;5066742;28;20055;-72
2022/03/29 07:14:14;;;;;;;9.27;3.38;;;7.20;99.90;;;;;;5075214;28;20020;-74
2022/03/29 07:16:44;;;;;;;3.42;1.40;;;7.30;99.90;;;;;;5071188;28;20530;-73
2022/03/29 07:19:11;;;;;;;10.00;2.22;;;7.40;99.90;;;;;;5076470;28;20074;-74
2022/03/29 07:21:39;;;;;;;3.85;1.35;;;7.60;99.90;;;;;;5083974;28;20029;-73
2022/03/29 07:24:08;;;;;;;9.35;2.13;;;7.60;99.90;;;;;;5083218;28;20020;-75
2022/03/29 07:26:35;;;;;;;5.07;1.60;;;7.60;99.90;;;;;;5065251;28;20450;-75
2022/03/29 07:29:07;;;;;;;5.05;2.30;;;7.60;99.90;;;;;;5065785;28;20028;-73
2022/03/29 07:31:42;;;;;;;19.25;1.90;;;7.60;99.90;;;;;;5074645;28;20037;-74
2022/03/29 07:34:08;;;;;;;22.25;2.90;;;7.70;99.90;;;;;;5063102;28;20097;-76
2022/03/29 07:36:33;;;;;;;24.25;3.05;;;7.70;99.90;;;;;;5065357;28;20040;-74
2022/03/29 07:38:59;;;;;;;11.82;2.53;;;7.70;99.90;;;;;;5064783;28;20090;-77
2022/03/29 07:41:25;;;;;;;23.45;2.75;;;7.70;99.90;;;;;;5074407;28;20033;-75
2022/03/29 07:43:54;;;;;;;13.52;2.13;;;7.60;99.90;;;;;;5078253;28;20035;-77
2022/03/29 07:46:21;;;;;;;13.07;2.80;;;7.60;99.90;;;;;;5075599;28;20032;-75
2022/03/29 07:48:47;;;;;;;7.55;1.80;;;7.70;99.90;;;;;;5084639;28;20032;-74
2022/03/29 07:51:16;;;;;;;9.07;2.05;;;7.70;99.90;;;;;;5082238;28;20025;-76
2022/03/29 07:53:42;;;;;;;12.02;3.30;;;7.80;99.90;;;;;;5082606;28;20548;-76
2022/03/29 07:56:22;;;;;;;12.00;2.15;;;7.90;99.90;;;;;;5073974;28;20035;-76
2022/03/29 07:58:48;;;;;;;6.63;1.88;;;7.90;99.90;;;;;;5072333;28;20049;-74
2022/03/29 08:01:14;;;;;;;9.32;2.15;;;7.90;99.90;;;;;;5077035;28;20039;-76
2022/03/29 08:03:42;;;;;;;13.32;2.28;;;8.00;99.90;;;;;;5078276;28;20567;-74
2022/03/29 08:06:22;;;;;;;6.25;2.03;;;8.10;99.90;;;;;;5068909;28;20413;-74
2022/03/29 08:08:49;;;;;;;12.70;2.33;;;8.20;99.90;;;;;;5066496;28;20029;-74
2022/03/29 08:11:15;;;;;;;4.47;1.73;;;8.30;99.90;;;;;;5069889;28;20062;-75
2022/03/29 08:13:42;;;;;;;2.20;1.50;;;8.20;99.90;;;;;;5070390;28;20088;-76
2022/03/29 08:16:08;;;;;;;10.25;2.08;;;8.30;99.90;;;;;;5076736;28;20016;-74
2022/03/29 08:18:36;;;;;;;11.63;2.17;;;8.40;99.90;;;;;;5081226;28;20072;-74
2022/03/29 08:21:47;;;;;;;19.90;2.55;;;8.50;99.90;;;;;;5069913;28;20524;-77
2022/03/29 08:23:48;;;;;;;12.80;2.15;;;8.50;99.90;;;;;;5071607;28;20063;-76
2022/03/29 08:26:19;;;;;;;1.42;0.93;;;8.50;99.90;;;;;;5078138;28;20032;-75
2022/03/29 08:28:46;;;;;;;11.32;1.92;;;8.60;99.90;;;;;;5069512;28;20028;-74
2022/03/29 08:31:12;;;;;;;13.25;2.50;;;8.70;99.90;;;;;;5083485;28;20764;-75
2022/03/29 08:33:38;;;;;;;6.78;1.38;;;8.90;99.90;;;;;;5074362;28;20025;-74
2022/03/29 08:36:05;;;;;;;7.88;1.75;;;9.00;99.90;;;;;;5074601;28;20045;-75
2022/03/29 08:38:31;;;;;;;8.45;1.75;;;9.00;99.90;;;;;;5062995;28;20064;-75
2022/03/29 08:40:58;;;;;;;14.57;1.67;;;9.00;99.90;;;;;;5082003;28;20031;-77
2022/03/29 08:43:30;;;;;;;9.88;1.60;;;9.00;99.90;;;;;;5083866;28;20021;-77
2022/03/29 08:45:57;;;;;;;5.85;1.75;;;8.80;99.90;;;;;;5083051;28;20028;-77
2022/03/29 08:48:25;;;;;;;8.70;2.10;;;8.60;99.90;;;;;;5072148;28;20036;-76
2022/03/29 08:50:57;;;;;;;6.90;1.55;;;8.50;99.90;;;;;;5065192;28;20519;-77
2022/03/29 08:53:24;;;;;;;9.93;1.77;;;8.40;99.90;;;;;;5063958;28;20033;-77
2022/03/29 08:55:53;;;;;;;3.03;1.63;;;8.60;99.90;;;;;;5067033;28;20100;-77
2022/03/29 08:58:22;;;;;;;12.70;2.13;;;8.70;99.90;;;;;;5067831;28;20059;-78
2022/03/29 09:00:53;;;;;;;4.88;1.10;;;8.90;99.90;;;;;;5062447;28;20433;-76
2022/03/29 09:03:22;;;;;;;3.78;1.80;;;9.00;99.90;;;;;;5062255;28;20483;-75
2022/03/29 09:06:08;;;;;;;9.93;1.83;;;8.90;99.90;;;;;;5062777;28;20033;-76
2022/03/29 09:08:44;;;;;;;15.40;2.20;;;9.00;99.90;;;;;;5064120;28;20025;-77
2022/03/29 09:11:10;;;;;;;13.13;2.45;;;8.80;99.90;;;;;;5063348;28;20032;-77
2022/03/29 09:13:36;;;;;;;8.70;2.22;;;8.80;99.90;;;;;;5064539;28;20457;-73
2022/03/29 09:16:03;;;;;;;12.38;2.78;;;8.80;99.90;;;;;;5067558;28;20108;-74
2022/03/29 09:18:32;;;;;;;11.57;2.42;;;8.80;99.90;;;;;;5082144;28;20037;-75
2022/03/29 09:21:16;;;;;;;4.85;1.83;;;8.80;99.90;;;;;;5075797;28;20064;-75
2022/03/29 09:23:43;;;;;;;;;;;9.00;99.90;;;;;;5076035;28;20107;-75
2022/03/29 09:26:27;;;;;;;5.47;2.03;;;9.10;99.90;;;;;;5083231;28;20479;-74
2022/03/29 09:28:52;;;;;;;6.35;1.33;;;9.20;99.90;;;;;;5063207;28;20048;-73
2022/03/29 09:31:23;;;;;;;12.27;2.92;;;9.30;99.90;;;;;;5064001;28;20032;-75
2022/03/29 09:33:51;;;;;;;9.70;1.88;;;9.40;99.90;;;;;;5070693;28;20028;-76
2022/03/29 09:36:20;;;;;;;9.77;2.17;;;9.40;99.90;;;;;;5082947;28;20508;-73
2022/03/29 09:38:52;;;;;;;14.48;2.47;;;9.50;99.90;;;;;;5083729;28;20096;-76
2022/03/29 09:41:39;;;;;;;13.10;1.88;;;9.50;99.90;;;;;;5079348;28;20032;-76
2022/03/29 09:44:19;;;;;;;6.60;1.80;;;9.60;99.90;;;;;;5064649;28;20068;-76
2022/03/29 09:47:04;;;;;;;21.85;3.65;;;10.00;99.90;;;;;;5064315;28;20040;-75
2022/03/29 09:49:50;;;;;;;11.88;2.45;;;10.00;99.90;;;;;;5069265;28;20036;-76
2022/03/29 09:52:19;;;;;;;10.18;2.95;;;10.10;99.90;;;;;;5071650;28;20086;-76
2022/03/29 09:55:07;;;;;;;9.90;2.63;;;10.40;99.90;;;;;;5061906;28;20523;-75
2022/03/29 09:57:38;;;;;;;5.03;1.60;;;10.90;99.90;;;;;;5063455;28;20059;-75
2022/03/29 10:00:07;;;;;;;15.38;2.85;;;11.40;99.90;;;;;;5063339;28;20029;-77
2022/03/29 10:02:38;;;;;;;7.68;1.92;;;11.70;99.90;;;;;;5063053;28;20106;-76
2022/03/29 10:05:05;;;;;;;12.07;2.00;;;12.00;99.90;;;;;;5061955;28;20543;-77
2022/03/29 10:07:37;;;;;;;5.70;1.65;;;12.10;99.90;;;;;;5062863;28;20037;-75
2022/03/29 10:10:07;;;;;;;13.52;1.40;;;11.80;99.90;;;;;;5062185;28;20079;-75
2022/03/29 10:12:34;;;;;;;10.45;2.15;;;11.50;99.90;;;;;;5073729;28;20033;-77
2022/03/29 10:15:00;;;;;;;5.95;2.40;;;11.40;99.90;;;;;;5069013;28;20029;-74
2022/03/29 10:17:26;;;;;;;9.15;1.83;;;11.40;99.90;;;;;;5074938;28;20024;-73
2022/03/29 10:19:55;;;;;;;13.13;3.10;;;11.50;99.90;;;;;;5068249;28;20021;-74
2022/03/29 10:22:21;;;;;;;6.28;1.83;;;11.40;99.90;;;;;;5072770;28;20029;-77
2022/03/29 10:24:47;;;;;;;12.93;2.72;;;11.30;99.90;;;;;;5067481;28;20108;-76
2022/03/29 10:27:16;;;;;;;6.97;2.35;;;11.30;99.90;;;;;;5074484;28;20020;-78
2022/03/29 10:29:42;;;;;;;12.68;2.58;;;11.50;99.90;;;;;;5069069;28;20035;-75
2022/03/29 10:32:07;;;;;;;11.20;2.72;;;11.70;99.90;;;;;;5066976;28;20052;-76
2022/03/29 10:34:40;;;;;;;11.98;2.25;;;12.10;99.90;;;;;;5066422;28;20029;-77
2022/03/29 10:37:17;;;;;;;10.15;2.72;;;12.10;99.90;;;;;;5080622;28;20049;-76
2022/03/29 10:40:04;;;;;;;4.22;2.20;;;12.00;99.90;;;;;;5084874;28;20040;-75
2022/03/29 10:42:44;;;;;;;9.68;2.90;;;11.60;99.90;;;;;;5075151;28;20028;-76
2022/03/29 10:45:13;;;;;;;10.85;2.58;;;11.30;99.90;;;;;;5067042;28;20029;-77
2022/03/29 10:47:40;;;;;;;9.82;2.53;;;11.00;99.90;;;;;;5064642;28;20039;-77
2022/03/29 10:50:10;;;;;;;10.43;2.53;;;10.90;99.90;;;;;;5065446;28;20033;-78
2022/03/29 10:52:41;;;;;;;3.83;1.95;;;10.90;99.90;;;;;;5067181;28;20063;-79
2022/03/29 10:55:28;;;;;;;15.75;2.75;;;10.80;99.90;;;;;;5082740;28;20081;-71
2022/03/29 10:58:14;;;;;;;6.40;2.17;;;10.80;99.90;;;;;;5067388;28;20049;-75
2022/03/29 11:00:46;;;;;;;13.05;3.05;;;10.90;99.90;;;;;;5086744;28;20126;-75
2022/03/29 11:03:13;;;;;;;12.63;2.63;;;11.10;99.90;;;;;;5085919;28;20029;-74
2022/03/29 11:06:07;;;;;;;11.00;3.20;;;11.00;99.90;;;;;;5084870;28;20028;-75
2022/03/29 11:08:35;;;;;;;18.30;2.38;;;11.00;99.90;;;;;;5085844;28;20020;-75
2022/03/29 11:11:02;;;;;;;8.32;2.17;;;11.00;99.90;;;;;;5084835;28;20039;-74
2022/03/29 11:13:38;;;;;;;13.68;2.78;;;11.10;99.90;;;;;;5072497;28;20090;-73
2022/03/29 11:16:29;;;;;;;16.08;3.25;;;11.00;99.90;;;;;;5081194;28;20023;-75
2022/03/29 11:18:55;;;;;;;11.43;3.03;;;11.00;99.90;;;;;;5085587;28;20040;-78
2022/03/29 11:21:29;;;;;;;14.15;3.17;;;11.00;99.90;;;;;;5086633;28;20040;-78
2022/03/29 11:23:58;;;;;;;7.15;2.13;;;10.70;99.90;;;;;;5082214;28;20048;-77
2022/03/29 11:26:24;;;;;;;10.82;2.60;;;10.60;99.90;;;;;;5071269;28;20078;-77
2022/03/29 11:28:53;;;;;;;17.35;2.92;;;10.50;99.90;;;;;;5064681;28;20035;-74
2022/03/29 11:31:32;;;;;;;9.88;2.97;;;10.50;99.90;;;;;;5065657;28;20045;-77
2022/03/29 11:33:58;;;;;;;6.10;2.38;;;10.50;99.90;;;;;;5076504;28;20039;-78
2022/03/29 11:36:24;;;;;;;11.90;3.20;;;10.50;99.90;;;;;;5084867;28;20123;-76
2022/03/29 11:38:49;;;;;;;9.73;3.58;;;10.40;99.90;;;;;;5085817;28;20070;-76
2022/03/29 11:41:27;;;;;;;9.77;2.83;;;10.40;99.90;;;;;;5084675;28;20020;-75
2022/03/29 11:44:01;;;;;;;11.77;2.85;;;10.50;99.90;;;;;;5085448;28;20031;-77
2022/03/29 11:47:02;;;;;;;;;;;10.70;99.90;;;;;;5086326;28;20032;-77
2022/03/29 11:49:28;;;;;;;11.40;3.67;;;10.90;99.90;;;;;;5082856;28;19904;-74
2022/03/29 11:52:04;;;;;;;14.23;3.45;;;10.80;99.90;;;;;;5080680;28;20033;-75
2022/03/29 11:54:30;;;;;;;14.07;3.80;;;10.70;99.90;;;;;;5065719;28;20052;-73
2022/03/29 11:56:56;;;;;;;9.88;4.43;;;10.60;99.90;;;;;;5065097;28;20063;-76
2022/03/29 11:59:21;;;;;;;17.13;3.65;;;10.50;99.90;;;;;;5068592;28;20033;-76
2022/03/29 12:01:47;;;;;;;8.52;3.63;;;10.50;99.90;;;;;;5065893;28;20036;-74
2022/03/29 12:04:13;;;;;;;21.15;3.40;;;10.50;99.90;;;;;;5075838;28;20038;-77
2022/03/29 12:06:53;;;;;;;8.80;3.17;;;10.50;99.90;;;;;;5083678;28;20021;-75
2022/03/29 12:09:26;;;;;;;7.68;3.33;;;10.40;99.90;;;;;;5075610;28;20028;-75
2022/03/29 12:12:03;;;;;;;11.57;3.13;;;10.20;99.90;;;;;;5067544;28;20048;-80
2022/03/29 12:14:30;;;;;;;10.63;2.83;;;10.30;99.90;;;;;;5066933;28;20035;-78
2022/03/29 12:17:03;;;;;;;12.70;3.28;;;10.20;99.90;;;;;;5084223;28;20044;-74
2022/03/29 12:19:30;;;;;;;7.55;2.92;;;10.20;99.90;;;;;;5077757;28;20613;-74
2022/03/29 12:22:06;;;;;;;5.90;2.55;;;10.30;99.90;;;;;;5064632;28;20021;-76
2022/03/29 12:24:31;;;;;;;10.45;2.00;;;10.30;99.90;;;;;;5064481;28;20055;-76
2022/03/29 12:27:02;;;;;;;6.07;2.60;;;10.40;99.90;;;;;;5064733;28;20029;-74
2022/03/29 12:29:28;;;;;;;21.45;3.20;;;10.40;99.90;;;;;;5072580;28;20031;-74
2022/03/29 12:31:56;;;;;;;4.50;2.60;;;10.50;99.90;;;;;;5085140;28;20028;-75
2022/03/29 12:34:26;;;;;;;7.60;2.50;;;10.60;99.90;;;;;;5079577;28;20017;-75
2022/03/29 12:36:56;;;;;;;12.18;3.72;;;10.50;99.90;;;;;;5064482;28;20047;-74
2022/03/29 12:39:22;;;;;;;7.57;2.55;;;10.30;99.90;;;;;;5065265;28;20048;-76
2022/03/29 12:41:55;;;;;;;18.90;3.47;;;10.20;99.90;;;;;;5085040;28;20526;-74
2022/03/29 12:44:54;;;;;;;9.38;3.78;;;10.10;99.90;;;;;;5082515;28;20039;-74
2022/03/29 12:47:31;;;;;;;8.75;3.03;;;10.00;99.90;;;;;;5084921;28;20025;-78
2022/03/29 12:49:58;;;;;;;13.05;3.72;;;10.00;99.90;;;;;;5085102;28;20115;-76
2022/03/29 12:52:23;;;;;;;4.75;2.47;;;9.90;99.90;;;;;;5085082;28;20094;-74
2022/03/29 12:54:59;;;;;;;12.50;3.25;;;9.90;99.90;;;;;;5084597;28;20056;-74
2022/03/29 12:57:37;;;;;;;12.75;3.70;;;10.00;99.90;;;;;;5084476;28;20108;-74
2022/03/29 13:00:14;;;;;;;9.27;2.90;;;10.00;99.90;;;;;;5084469;28;20032;-75
2022/03/29 13:02:48;;;;;;;7.65;3.03;;;10.00;99.90;;;;;;5079888;28;20246;-77
2022/03/29 13:05:18;;;;;;;6.05;2.65;;;10.00;99.90;;;;;;5082017;28;20034;-76